Time,TemperatureF,DewpointF,PressureIn,WindDirection,WindDirectionDegrees,WindSpeedMPH,WindSpeedGustMPH,Humidity,HourlyPrecipIn,Conditions,Clouds,dailyrainin,SolarRadiationWatts/m^2,SoftwareType,DateUTC
2013-03-05 00:00:00,63.6,54.8,30.09,North,10,11.5,11.5,73,0.00,,,0.00,0.0,WeatherDisplay:10.37,2013-03-05 10:00:00,
2013-03-05 00:05:00,63.7,54.9,30.09,ENE,60,9.2,9.2,73,0.00,,,0.00,0.0,WeatherDisplay:10.37,2013-03-05 10:05:00,
2013-03-05 00:10:00,63.8,55.0,30.09,NE,43,11.5,11.5,73,0.00,,,0.00,0.0,WeatherDisplay:10.37,2013-03-05 10:10:00,
2013-03-05 00:15:00,63.8,54.6,30.09,East,86,8.1,8.1,72,0.00,,,0.00,0.0,WeatherDisplay:10.37,2013-03-05 10:15:00,
2013-03-05 00:20:00,63.7,54.5,30.08,NE,44,11.5,11.5,72,0.00,,,0.00,0.0,WeatherDisplay:10.37,2013-03-05 10:20:00,
2013-03-05 00:25:00,63.8,54.6,30.08,North,5,9.2,9.2,72,0.00,,,0.00,0.0,WeatherDisplay:10.37,2013-03-05 10:25:00,
2013-03-05 00:30:00,63.8,55.0,30.08,NNW,347,11.5,11.5,73,0.00,,,0.00,0.0,WeatherDisplay:10.37,2013-03-05 10:30:00,
2013-03-05 00:35:00,63.8,55.0,30.08,ENE,66,8.1,8.1,73,0.00,,,0.00,0.0,WeatherDisplay:10.37,2013-03-05 10:35:00,
2013-03-05 00:40:00,63.8,55.4,30.09,NNE,32,10.4,10.4,74,0.00,,,0.00,0.0,WeatherDisplay:10.37,2013-03-05 10:40:00,
2013-03-05 00:45:00,63.8,55.4,30.09,NNE,18,13.8,13.8,74,0.00,,,0.00,0.0,WeatherDisplay:10.37,2013-03-05 10:45:00,
2013-03-05 00:50:00,63.8,55.4,30.09,NNE,19,8.1,8.1,74,0.00,,,0.00,0.0,WeatherDisplay:10.37,2013-03-05 10:50:00,
2013-03-05 00:55:00,63.8,55.4,30.08,NNW,336,12.7,12.7,74,0.00,,,0.00,0.0,WeatherDisplay:10.37,2013-03-05 10:55:00,
2013-03-05 01:00:00,63.8,55.0,30.08,NE,41,10.4,10.4,73,0.00,,,0.00,0.0,WeatherDisplay:10.37,2013-03-05 11:00:00,
2013-03-05 01:05:00,63.8,55.0,30.08,ESE,109,11.5,11.5,73,0.00,,,0.00,0.0,WeatherDisplay:10.37,2013-03-05 11:05:00,
2013-03-05 01:10:00,63.8,55.0,30.08,NE,36,9.2,9.2,73,0.00,,,0.00,0.0,WeatherDisplay:10.37,2013-03-05 11:10:00,
2013-03-05 01:15:00,63.9,54.7,30.08,NE,46,6.9,6.9,72,0.00,,,0.00,0.0,WeatherDisplay:10.37,2013-03-05 11:15:00,
2013-03-05 01:20:00,63.8,54.6,30.08,North,351,4.0,4.0,72,0.00,,,0.00,0.0,WeatherDisplay:10.37,2013-03-05 11:20:00,
2013-03-05 01:25:00,63.7,54.5,30.08,ENE,64,8.0,8.0,72,0.00,,,0.00,0.0,WeatherDisplay:10.37,2013-03-05 11:25:00,
2013-03-05 01:30:00,63.7,54.5,30.08,ENE,68,12.7,12.7,72,0.00,,,0.00,0.0,WeatherDisplay:10.37,2013-03-05 11:30:00,
2013-03-05 01:35:00,63.7,54.5,30.08,ENE,65,6.9,6.9,72,0.00,,,0.00,0.0,WeatherDisplay:10.37,2013-03-05 11:35:00,
2013-03-05 01:40:00,63.7,54.5,30.07,NE,34,8.1,8.1,72,0.00,,,0.00,0.0,WeatherDisplay:10.37,2013-03-05 11:40:00,
2013-03-05 01:45:00,63.8,54.6,30.08,North,5,8.1,8.1,72,0.00,,,0.00,0.0,WeatherDisplay:10.37,2013-03-05 11:45:00,
2013-03-05 01:50:00,63.8,55.0,30.08,NNE,13,11.5,11.5,73,0.00,,,0.00,0.0,WeatherDisplay:10.37,2013-03-05 11:50:00,
2013-03-05 01:55:00,63.8,54.6,30.08,ENE,58,5.8,5.8,72,0.00,,,0.00,0.0,WeatherDisplay:10.37,2013-03-05 11:55:00,
2013-03-05 02:00:00,63.8,55.0,30.07,NNE,24,5.8,5.8,73,0.00,,,0.00,0.0,WeatherDisplay:10.37,2013-03-05 12:00:00,
2013-03-05 02:05:00,63.7,54.5,30.07,ENE,64,6.9,6.9,72,0.00,,,0.00,0.0,WeatherDisplay:10.37,2013-03-05 12:05:00,
2013-03-05 02:10:00,63.6,54.4,30.07,North,5,3.5,3.5,72,0.00,,,0.00,0.0,WeatherDisplay:10.37,2013-03-05 12:10:00,
2013-03-05 02:15:00,63.6,54.0,30.07,NE,34,5.8,5.8,71,0.00,,,0.00,0.0,WeatherDisplay:10.37,2013-03-05 12:15:00,
2013-03-05 02:20:00,63.5,53.9,30.07,East,83,6.9,6.9,71,0.00,,,0.00,0.0,WeatherDisplay:10.37,2013-03-05 12:20:00,
2013-03-05 02:25:00,63.6,54.4,30.06,NNE,13,9.2,9.2,72,0.00,,,0.00,0.0,WeatherDisplay:10.37,2013-03-05 12:25:00,
2013-03-05 02:30:00,63.7,54.9,30.06,NNE,17,8.1,8.1,73,0.00,,,0.00,0.0,WeatherDisplay:10.37,2013-03-05 12:30:00,
2013-03-05 02:35:00,63.8,55.0,30.06,NNE,12,8.1,8.1,73,0.00,,,0.00,0.0,WeatherDisplay:10.37,2013-03-05 12:35:00,
2013-03-05 02:40:00,63.8,55.4,30.06,North,10,9.2,9.2,74,0.00,,,0.00,0.0,WeatherDisplay:10.37,2013-03-05 12:40:00,
2013-03-05 02:45:00,63.8,55.4,30.07,NE,50,5.8,5.8,74,0.00,,,0.00,0.0,WeatherDisplay:10.37,2013-03-05 12:45:00,
2013-03-05 02:50:00,63.7,55.3,30.07,ENE,61,8.1,8.1,74,0.00,,,0.00,0.0,WeatherDisplay:10.37,2013-03-05 12:50:00,
2013-03-05 02:55:00,63.7,55.3,30.07,NE,50,8.0,8.0,74,0.00,,,0.00,0.0,WeatherDisplay:10.37,2013-03-05 12:55:00,
2013-03-05 03:00:00,63.8,55.7,30.07,NNW,328,12.7,12.7,75,0.00,,,0.00,0.0,WeatherDisplay:10.37,2013-03-05 13:00:00,
2013-03-05 03:05:00,64.0,55.9,30.07,ENE,76,6.9,6.9,75,0.00,,,0.00,0.0,WeatherDisplay:10.37,2013-03-05 13:05:00,
2013-03-05 03:10:00,64.0,56.3,30.07,NNE,13,4.6,4.9,76,0.00,,,0.00,0.0,WeatherDisplay:10.37,2013-03-05 13:10:00,
2013-03-05 03:15:00,63.9,56.2,30.06,NNE,13,8.1,8.1,76,0.00,,,0.00,0.0,WeatherDisplay:10.37,2013-03-05 13:15:00,
2013-03-05 03:20:00,63.9,56.2,30.07,ENE,69,10.4,10.4,76,0.00,,,0.00,0.0,WeatherDisplay:10.37,2013-03-05 13:20:00,
2013-03-05 03:25:00,63.8,56.1,30.06,NE,50,9.2,9.2,76,0.00,,,0.00,0.0,WeatherDisplay:10.37,2013-03-05 13:25:00,
2013-03-05 03:30:00,63.8,56.1,30.06,North,355,5.8,5.8,76,0.00,,,0.00,0.0,WeatherDisplay:10.37,2013-03-05 13:30:00,
2013-03-05 03:35:00,63.7,56.0,30.06,NE,46,3.5,3.5,76,0.00,,,0.00,0.0,WeatherDisplay:10.37,2013-03-05 13:35:00,
2013-03-05 03:40:00,63.7,56.0,30.06,NNE,23,6.9,6.9,76,0.00,,,0.00,0.0,WeatherDisplay:10.37,2013-03-05 13:40:00,
2013-03-05 03:45:00,63.7,56.0,30.06,North,11,6.9,6.9,76,0.00,,,0.00,0.0,WeatherDisplay:10.37,2013-03-05 13:45:00,
2013-03-05 03:50:00,63.6,55.9,30.06,East,81,4.6,4.6,76,0.00,,,0.00,0.0,WeatherDisplay:10.37,2013-03-05 13:50:00,
2013-03-05 03:55:00,63.6,55.9,30.06,NE,46,6.9,6.9,76,0.00,,,0.00,0.0,WeatherDisplay:10.37,2013-03-05 13:55:00,
2013-03-05 04:00:00,63.6,55.9,30.06,ENE,74,9.2,9.2,76,0.00,,,0.00,0.0,WeatherDisplay:10.37,2013-03-05 14:00:00,
2013-03-05 04:05:00,63.6,56.3,30.06,NNW,333,6.9,6.9,77,0.00,,,0.00,0.0,WeatherDisplay:10.37,2013-03-05 14:05:00,
2013-03-05 04:10:00,63.7,56.4,30.06,North,360,8.1,8.1,77,0.00,,,0.00,0.0,WeatherDisplay:10.37,2013-03-05 14:10:00,
2013-03-05 04:15:00,63.7,56.4,30.06,ENE,61,5.8,5.8,77,0.00,,,0.00,0.0,WeatherDisplay:10.37,2013-03-05 14:15:00,
2013-03-05 04:20:00,63.7,56.4,30.06,NNE,32,9.2,9.2,77,0.00,,,0.00,0.0,WeatherDisplay:10.37,2013-03-05 14:20:00,
2013-03-05 04:25:00,63.7,56.4,30.06,NE,51,8.1,8.1,77,0.00,,,0.00,0.0,WeatherDisplay:10.37,2013-03-05 14:25:00,
2013-03-05 04:30:00,63.6,56.3,30.06,North,11,8.1,8.1,77,0.00,,,0.00,0.0,WeatherDisplay:10.37,2013-03-05 14:30:00,
2013-03-05 04:35:00,63.6,56.3,30.06,NNE,31,3.5,3.5,77,0.00,,,0.00,0.0,WeatherDisplay:10.37,2013-03-05 14:35:00,
2013-03-05 04:40:00,63.5,56.2,30.06,NNE,32,4.0,4.2,77,0.00,,,0.00,0.0,WeatherDisplay:10.37,2013-03-05 14:40:00,
2013-03-05 04:45:00,63.5,56.2,30.06,North,10,5.8,5.8,77,0.00,,,0.00,0.0,WeatherDisplay:10.37,2013-03-05 14:45:00,
2013-03-05 04:50:00,63.4,55.7,30.06,NE,47,6.9,6.9,76,0.00,,,0.00,0.0,WeatherDisplay:10.37,2013-03-05 14:50:00,
2013-03-05 04:55:00,63.4,55.7,30.06,ENE,57,3.5,3.5,76,0.00,,,0.00,0.0,WeatherDisplay:10.37,2013-03-05 14:55:00,
2013-03-05 05:00:00,63.4,55.7,30.06,NE,54,4.6,4.6,76,0.00,,,0.00,0.0,WeatherDisplay:10.37,2013-03-05 15:00:00,
2013-03-05 05:05:00,63.4,55.7,30.06,NE,55,4.6,4.6,76,0.00,,,0.00,0.0,WeatherDisplay:10.37,2013-03-05 15:05:00,
2013-03-05 05:10:00,63.4,55.3,30.06,NE,53,4.6,4.6,75,0.00,,,0.00,0.0,WeatherDisplay:10.37,2013-03-05 15:10:00,
2013-03-05 05:15:00,63.3,55.2,30.07,NE,52,4.6,4.6,75,0.00,,,0.00,0.0,WeatherDisplay:10.37,2013-03-05 15:15:00,
2013-03-05 05:20:00,63.2,54.8,30.07,NE,35,4.6,4.6,74,0.00,,,0.00,0.0,WeatherDisplay:10.37,2013-03-05 15:20:00,
2013-03-05 05:25:00,63.2,54.8,30.07,NE,55,3.5,3.5,74,0.00,,,0.00,0.0,WeatherDisplay:10.37,2013-03-05 15:25:00,
2013-03-05 05:30:00,63.1,54.3,30.07,NNE,24,4.6,4.6,73,0.00,,,0.00,0.0,WeatherDisplay:10.37,2013-03-05 15:30:00,
2013-03-05 05:35:00,63.2,54.4,30.07,East,97,3.5,3.6,73,0.00,,,0.00,0.0,WeatherDisplay:10.37,2013-03-05 15:35:00,
2013-03-05 05:40:00,63.1,54.3,30.07,NE,38,3.5,3.5,73,0.00,,,0.00,0.0,WeatherDisplay:10.37,2013-03-05 15:40:00,
2013-03-05 05:45:00,63.1,54.3,30.07,NE,40,3.5,3.5,73,0.00,,,0.00,0.0,WeatherDisplay:10.37,2013-03-05 15:45:00,
2013-03-05 05:50:00,63.0,53.8,30.07,NE,38,4.6,4.6,72,0.00,,,0.00,0.0,WeatherDisplay:10.37,2013-03-05 15:50:00,
2013-03-05 05:55:00,63.0,53.8,30.07,North,355,3.5,3.5,72,0.00,,,0.00,0.0,WeatherDisplay:10.37,2013-03-05 15:55:00,
2013-03-05 06:00:00,63.0,53.8,30.07,NE,49,5.0,5.0,72,0.00,,,0.00,0.0,WeatherDisplay:10.37,2013-03-05 16:00:00,
2013-03-05 06:05:00,63.1,53.5,30.07,NNE,32,5.8,5.8,71,0.00,,,0.00,0.0,WeatherDisplay:10.37,2013-03-05 16:05:00,
2013-03-05 06:10:00,63.1,53.5,30.07,NNW,339,4.6,4.6,71,0.00,,,0.00,0.0,WeatherDisplay:10.37,2013-03-05 16:10:00,
2013-03-05 06:15:00,63.2,53.3,30.07,North,360,6.9,6.9,70,0.00,,,0.00,0.0,WeatherDisplay:10.37,2013-03-05 16:15:00,
2013-03-05 06:20:00,63.2,53.3,30.07,NNE,13,4.6,4.6,70,0.00,,,0.00,0.0,WeatherDisplay:10.37,2013-03-05 16:20:00,
2013-03-05 06:25:00,63.3,53.3,30.07,NE,42,5.8,5.8,70,0.00,,,0.00,0.0,WeatherDisplay:10.37,2013-03-05 16:25:00,
2013-03-05 06:30:00,63.4,53.4,30.08,North,355,6.9,6.9,70,0.00,,,0.00,0.0,WeatherDisplay:10.37,2013-03-05 16:30:00,
2013-03-05 06:35:00,63.5,53.9,30.08,NE,47,8.1,8.1,71,0.00,,,0.00,0.0,WeatherDisplay:10.37,2013-03-05 16:35:00,
2013-03-05 06:40:00,63.6,53.6,30.08,NE,53,8.1,8.1,70,0.00,,,0.00,0.0,WeatherDisplay:10.37,2013-03-05 16:40:00,
2013-03-05 06:45:00,63.7,54.1,30.09,ENE,61,10.4,10.4,71,0.00,,,0.00,0.0,WeatherDisplay:10.37,2013-03-05 16:45:00,
2013-03-05 06:50:00,63.7,54.1,30.09,NNE,15,6.9,6.9,71,0.00,,,0.00,7.0,WeatherDisplay:10.37,2013-03-05 16:50:00,
2013-03-05 06:55:00,63.8,54.2,30.09,ENE,65,4.6,4.6,71,0.00,CLR,,0.00,9.0,WeatherDisplay:10.37,2013-03-05 16:55:00,
2013-03-05 07:00:00,63.8,54.2,30.09,North,9,3.5,3.9,71,0.00,SCT,,0.00,14.0,WeatherDisplay:10.37,2013-03-05 17:00:00,
2013-03-05 07:05:00,63.8,54.6,30.09,ENE,61,5.8,5.8,72,0.00,SCT,,0.00,19.0,WeatherDisplay:10.37,2013-03-05 17:05:00,
2013-03-05 07:10:00,63.8,54.6,30.09,NNE,32,4.6,4.6,72,0.00,CLR,,0.00,35.0,WeatherDisplay:10.37,2013-03-05 17:10:00,
2013-03-05 07:15:00,63.9,54.7,30.09,NNE,23,4.6,4.6,72,0.00,SCT,,0.00,33.0,WeatherDisplay:10.37,2013-03-05 17:15:00,
2013-03-05 07:20:00,64.0,54.8,30.10,NE,39,5.8,5.8,72,0.00,SCT,,0.00,42.0,WeatherDisplay:10.37,2013-03-05 17:20:00,
2013-03-05 07:25:00,64.1,54.9,30.10,NE,40,4.6,4.6,72,0.00,CLR,,0.00,62.0,WeatherDisplay:10.37,2013-03-05 17:25:00,
2013-03-05 07:30:00,64.4,55.2,30.09,NE,47,3.5,5.0,72,0.00,CLR,,0.00,74.0,WeatherDisplay:10.37,2013-03-05 17:30:00,
2013-03-05 07:35:00,64.7,55.5,30.10,ENE,69,4.6,4.6,72,0.00,CLR,,0.00,95.0,WeatherDisplay:10.37,2013-03-05 17:35:00,
2013-03-05 07:40:00,64.9,55.7,30.10,North,349,6.9,6.9,72,0.00,BKN,,0.00,46.0,WeatherDisplay:10.37,2013-03-05 17:40:00,
2013-03-05 07:45:00,65.1,55.5,30.11,NE,50,3.5,4.2,71,0.00,CLR,,0.00,146.0,WeatherDisplay:10.37,2013-03-05 17:45:00,
2013-03-05 07:50:00,65.3,55.7,30.11,ENE,71,7.0,7.0,71,0.00,CLR,,0.00,158.0,WeatherDisplay:10.37,2013-03-05 17:50:00,
2013-03-05 07:55:00,65.6,55.9,30.11,NE,38,3.5,3.6,71,0.00,CLR,,0.00,188.0,WeatherDisplay:10.37,2013-03-05 17:55:00,
2013-03-05 08:00:00,65.8,56.1,30.11,NE,37,3.5,3.5,71,0.00,CLR,,0.00,237.0,WeatherDisplay:10.37,2013-03-05 18:00:00,
2013-03-05 08:05:00,65.9,55.8,30.11,ENE,69,6.9,6.9,70,0.00,SCT,,0.00,160.0,WeatherDisplay:10.37,2013-03-05 18:05:00,
2013-03-05 08:10:00,66.1,56.0,30.11,ENE,77,9.2,9.2,70,0.00,CLR,,0.00,258.0,WeatherDisplay:10.37,2013-03-05 18:10:00,
2013-03-05 08:15:00,66.3,56.2,30.10,NNE,30,4.6,4.6,70,0.00,CLR,,0.00,260.0,WeatherDisplay:10.37,2013-03-05 18:15:00,
2013-03-05 08:20:00,66.7,56.2,30.10,East,84,8.1,8.1,69,0.00,CLR,,0.00,230.0,WeatherDisplay:10.37,2013-03-05 18:20:00,
2013-03-05 08:25:00,66.8,56.3,30.10,NNE,17,4.6,4.6,69,0.00,CLR,,0.00,329.0,WeatherDisplay:10.37,2013-03-05 18:25:00,
2013-03-05 08:30:00,67.1,56.6,30.10,ENE,67,8.1,8.1,69,0.00,CLR,,0.00,329.0,WeatherDisplay:10.37,2013-03-05 18:30:00,
2013-03-05 08:35:00,67.4,56.9,30.10,ENE,58,7.0,7.0,69,0.00,CLR,,0.00,350.0,WeatherDisplay:10.37,2013-03-05 18:35:00,
2013-03-05 08:40:00,67.9,56.9,30.10,ENE,76,11.5,11.5,68,0.00,CLR,,0.00,373.0,WeatherDisplay:10.37,2013-03-05 18:40:00,
2013-03-05 08:45:00,68.2,56.8,30.11,NNE,28,10.4,10.4,67,0.00,CLR,,0.00,396.0,WeatherDisplay:10.37,2013-03-05 18:45:00,
2013-03-05 08:50:00,68.6,57.2,30.11,NNE,26,8.1,8.1,67,0.00,CLR,,0.00,415.0,WeatherDisplay:10.37,2013-03-05 18:50:00,
2013-03-05 08:55:00,68.9,57.5,30.11,ENE,59,10.4,10.4,67,0.00,CLR,,0.00,436.0,WeatherDisplay:10.37,2013-03-05 18:55:00,
2013-03-05 09:00:00,69.0,57.6,30.10,ENE,67,8.1,8.1,67,0.00,BKN,,0.00,183.0,WeatherDisplay:10.37,2013-03-05 19:00:00,
2013-03-05 09:05:00,69.1,58.1,30.11,NE,48,11.5,11.5,68,0.00,CLR,,0.00,434.0,WeatherDisplay:10.37,2013-03-05 19:05:00,
2013-03-05 09:10:00,69.6,58.6,30.11,North,360,11.5,11.5,68,0.00,CLR,,0.00,606.0,WeatherDisplay:10.37,2013-03-05 19:10:00,
2013-03-05 09:15:00,69.8,58.8,30.11,East,84,9.2,9.2,68,0.00,SCT,,0.00,244.0,WeatherDisplay:10.37,2013-03-05 19:15:00,
2013-03-05 09:20:00,69.7,58.7,30.11,ESE,107,5.8,5.8,68,0.00,SCT,,0.00,237.0,WeatherDisplay:10.37,2013-03-05 19:20:00,
2013-03-05 09:25:00,69.6,58.6,30.11,ENE,64,4.6,4.6,68,0.00,SCT,,0.00,255.0,WeatherDisplay:10.37,2013-03-05 19:25:00,
2013-03-05 09:30:00,69.7,59.1,30.11,NE,42,10.4,10.4,69,0.00,CLR,,0.00,701.0,WeatherDisplay:10.37,2013-03-05 19:30:00,
2013-03-05 09:35:00,70.1,59.5,30.11,SE,144,9.2,9.2,69,0.00,BKN,,0.00,223.0,WeatherDisplay:10.37,2013-03-05 19:35:00,
2013-03-05 09:40:00,70.1,59.0,30.11,ENE,72,10.4,10.4,68,0.00,CLR,,0.00,251.0,WeatherDisplay:10.37,2013-03-05 19:40:00,
2013-03-05 09:45:00,70.1,57.8,30.11,NE,38,9.2,9.2,65,0.00,CLR,,0.00,682.0,WeatherDisplay:10.37,2013-03-05 19:45:00,
2013-03-05 09:50:00,70.6,57.8,30.12,ESE,113,11.5,11.5,64,0.00,CLR,,0.00,738.0,WeatherDisplay:10.37,2013-03-05 19:50:00,
2013-03-05 09:55:00,71.1,58.3,30.11,NE,54,9.0,9.0,64,0.00,CLR,,0.00,795.0,WeatherDisplay:10.37,2013-03-05 19:55:00,
2013-03-05 10:00:00,71.6,58.3,30.11,NE,51,8.1,8.1,63,0.00,CLR,,0.00,853.0,WeatherDisplay:10.37,2013-03-05 20:00:00,
2013-03-05 10:05:00,72.0,58.7,30.11,ENE,74,10.4,10.4,63,0.00,CLR,,0.00,278.0,WeatherDisplay:10.37,2013-03-05 20:05:00,
2013-03-05 10:10:00,71.9,58.6,30.11,North,5,9.2,9.2,63,0.00,BKN,,0.00,294.0,WeatherDisplay:10.37,2013-03-05 20:10:00,
2013-03-05 10:15:00,71.4,58.1,30.11,NNE,31,8.1,8.1,63,0.00,SCT,,0.00,445.0,WeatherDisplay:10.37,2013-03-05 20:15:00,
2013-03-05 10:20:00,70.9,58.1,30.11,ENE,70,8.1,8.1,64,0.00,CLR,,0.00,547.0,WeatherDisplay:10.37,2013-03-05 20:20:00,
2013-03-05 10:25:00,70.8,58.4,30.10,ENE,62,7.0,7.0,65,0.00,BKN,,0.00,308.0,WeatherDisplay:10.37,2013-03-05 20:25:00,
2013-03-05 10:30:00,70.9,58.1,30.10,ESE,107,10.4,10.4,64,0.00,CLR,,0.00,967.0,WeatherDisplay:10.37,2013-03-05 20:30:00,
2013-03-05 10:35:00,71.2,57.5,30.10,NNE,32,10.4,10.4,62,0.00,BKN,,0.00,334.0,WeatherDisplay:10.37,2013-03-05 20:35:00,
2013-03-05 10:40:00,71.3,57.6,30.10,ESE,107,9.2,9.2,62,0.00,BKN,,0.00,914.0,WeatherDisplay:10.37,2013-03-05 20:40:00,
2013-03-05 10:45:00,71.5,57.8,30.10,NE,55,11.5,11.5,62,0.00,BKN,,0.00,357.0,WeatherDisplay:10.37,2013-03-05 20:45:00,
2013-03-05 10:50:00,71.4,57.2,30.10,NE,51,10.4,10.4,61,0.00,CLR,,0.00,1051.0,WeatherDisplay:10.37,2013-03-05 20:50:00,
2013-03-05 10:55:00,71.7,57.5,30.09,East,94,11.5,11.5,61,0.00,CLR,,0.00,856.0,WeatherDisplay:10.37,2013-03-05 20:55:00,
2013-03-05 11:00:00,72.1,57.4,30.10,NE,51,11.5,11.5,60,0.00,CLR,,0.00,847.0,WeatherDisplay:10.37,2013-03-05 21:00:00,
2013-03-05 11:05:00,72.6,57.4,30.10,NE,40,9.2,9.2,59,0.00,CLR,,0.00,842.0,WeatherDisplay:10.37,2013-03-05 21:05:00,
2013-03-05 11:10:00,72.7,57.1,30.09,ENE,69,7.0,7.0,58,0.00,CLR,,0.00,784.0,WeatherDisplay:10.37,2013-03-05 21:10:00,
2013-03-05 11:15:00,73.2,57.1,30.09,ENE,64,6.9,6.9,57,0.00,CLR,,0.00,853.0,WeatherDisplay:10.37,2013-03-05 21:15:00,
2013-03-05 11:20:00,73.4,57.2,30.09,ENE,62,11.5,11.5,57,0.00,CLR,,0.00,858.0,WeatherDisplay:10.37,2013-03-05 21:20:00,
2013-03-05 11:25:00,73.4,57.2,30.09,ENE,61,5.8,5.8,57,0.00,CLR,,0.00,877.0,WeatherDisplay:10.37,2013-03-05 21:25:00,
2013-03-05 11:30:00,73.5,56.3,30.09,ENE,66,9.2,9.2,55,0.00,CLR,,0.00,889.0,WeatherDisplay:10.37,2013-03-05 21:30:00,
2013-03-05 11:35:00,73.9,55.7,30.08,NNE,12,9.2,9.2,53,0.00,CLR,,0.00,874.0,WeatherDisplay:10.37,2013-03-05 21:35:00,
2013-03-05 11:40:00,74.1,55.9,30.08,NE,56,4.6,4.6,53,0.00,CLR,,0.00,884.0,WeatherDisplay:10.37,2013-03-05 21:40:00,
2013-03-05 11:45:00,74.2,56.5,30.08,ENE,67,11.5,11.5,54,0.00,CLR,,0.00,896.0,WeatherDisplay:10.37,2013-03-05 21:45:00,
2013-03-05 11:50:00,74.2,56.0,30.08,ENE,59,8.1,8.1,53,0.00,CLR,,0.00,891.0,WeatherDisplay:10.37,2013-03-05 21:50:00,
2013-03-05 11:55:00,74.4,55.6,30.08,ENE,69,8.1,8.1,52,0.00,CLR,,0.00,912.0,WeatherDisplay:10.37,2013-03-05 21:55:00,
2013-03-05 12:00:00,74.5,55.7,30.08,ESE,116,9.2,9.2,52,0.00,CLR,,0.00,904.0,WeatherDisplay:10.37,2013-03-05 22:00:00,
2013-03-05 12:05:00,74.1,55.3,30.08,ENE,76,11.5,11.5,52,0.00,CLR,,0.00,918.0,WeatherDisplay:10.37,2013-03-05 22:05:00,
2013-03-05 12:10:00,74.1,55.3,30.08,NE,46,11.5,11.5,52,0.00,CLR,,0.00,921.0,WeatherDisplay:10.37,2013-03-05 22:10:00,
2013-03-05 12:15:00,73.9,56.2,30.08,East,87,9.2,9.2,54,0.00,CLR,,0.00,940.0,WeatherDisplay:10.37,2013-03-05 22:15:00,
2013-03-05 12:20:00,73.9,56.2,30.07,ESE,114,9.2,9.2,54,0.00,CLR,,0.00,983.0,WeatherDisplay:10.37,2013-03-05 22:20:00,
2013-03-05 12:25:00,74.3,56.6,30.07,ESE,115,3.5,3.5,54,0.00,CLR,,0.00,965.0,WeatherDisplay:10.37,2013-03-05 22:25:00,
2013-03-05 12:30:00,74.4,56.2,30.08,NNE,32,9.2,9.2,53,0.00,CLR,,0.00,958.0,WeatherDisplay:10.37,2013-03-05 22:30:00,
2013-03-05 12:35:00,74.6,56.9,30.07,East,81,8.1,8.1,54,0.00,CLR,,0.00,997.0,WeatherDisplay:10.37,2013-03-05 22:35:00,
2013-03-05 12:40:00,74.9,56.6,30.07,NE,40,8.1,8.1,53,0.00,BKN,,0.00,452.0,WeatherDisplay:10.37,2013-03-05 22:40:00,
2013-03-05 12:46:00,74.9,55.6,30.07,ESE,111,5.8,5.8,51,0.00,BKN,,0.00,970.0,WeatherDisplay:10.37,2013-03-05 22:46:00,
2013-03-05 12:51:00,75.0,56.2,30.06,ENE,66,8.1,8.1,52,0.00,CLR,,0.00,933.0,WeatherDisplay:10.37,2013-03-05 22:51:00,
2013-03-05 12:56:00,75.2,57.4,30.06,ESE,117,5.8,5.8,54,0.00,CLR,,0.00,976.0,WeatherDisplay:10.37,2013-03-05 22:56:00,
2013-03-05 13:01:00,75.7,57.4,30.06,ENE,60,6.9,6.9,53,0.00,CLR,,0.00,1093.0,WeatherDisplay:10.37,2013-03-05 23:01:00,
2013-03-05 13:06:00,75.7,56.3,30.06,NE,35,11.5,11.5,51,0.00,BKN,,0.00,297.0,WeatherDisplay:10.37,2013-03-05 23:06:00,
2013-03-05 13:11:00,75.2,55.8,30.06,NE,49,11.5,11.5,51,0.00,CLR,,0.00,951.0,WeatherDisplay:10.37,2013-03-05 23:11:00,
2013-03-05 13:16:00,75.4,56.5,30.05,NE,51,8.1,8.1,52,0.00,CLR,,0.00,942.0,WeatherDisplay:10.37,2013-03-05 23:16:00,
2013-03-05 13:21:00,75.7,56.8,30.05,East,85,4.6,6.0,52,0.00,CLR,,0.00,933.0,WeatherDisplay:10.37,2013-03-05 23:21:00,
2013-03-05 13:26:00,76.1,57.2,30.05,ESE,112,9.0,9.0,52,0.00,CLR,,0.00,942.0,WeatherDisplay:10.37,2013-03-05 23:26:00,
2013-03-05 13:31:00,75.9,57.0,30.04,NE,51,8.1,8.1,52,0.00,CLR,,0.00,932.0,WeatherDisplay:10.37,2013-03-05 23:31:00,
2013-03-05 13:36:00,75.8,57.4,30.04,ESE,116,7.0,7.0,53,0.00,CLR,,0.00,1058.0,WeatherDisplay:10.37,2013-03-05 23:36:00,
2013-03-05 13:41:00,76.0,58.2,30.04,NE,34,12.7,12.7,54,0.00,FEW,,0.00,577.0,WeatherDisplay:10.37,2013-03-05 23:41:00,
2013-03-05 13:46:00,75.6,57.8,30.04,East,88,10.4,10.4,54,0.00,CLR,,0.00,974.0,WeatherDisplay:10.37,2013-03-05 23:46:00,
2013-03-05 13:51:00,75.3,57.5,30.04,NE,36,11.5,11.5,54,0.00,CLR,,0.00,907.0,WeatherDisplay:10.37,2013-03-05 23:51:00,
2013-03-05 13:56:00,75.4,57.6,30.04,NE,55,11.5,11.5,54,0.00,CLR,,0.00,879.0,WeatherDisplay:10.37,2013-03-05 23:56:00,
2013-03-05 14:01:00,75.3,57.5,30.04,NE,56,5.8,5.8,54,0.00,CLR,,0.00,872.0,WeatherDisplay:10.37,2013-03-06 00:01:00,
2013-03-05 14:06:00,75.7,57.9,30.03,NE,43,5.8,5.8,54,0.00,CLR,,0.00,907.0,WeatherDisplay:10.37,2013-03-06 00:06:00,
2013-03-05 14:11:00,75.7,57.4,30.03,NE,53,8.1,8.1,53,0.00,CLR,,0.00,874.0,WeatherDisplay:10.37,2013-03-06 00:11:00,
2013-03-05 14:16:00,75.6,58.3,30.04,ESE,119,5.8,5.8,55,0.00,CLR,,0.00,863.0,WeatherDisplay:10.37,2013-03-06 00:16:00,
2013-03-05 14:21:00,75.7,57.9,30.03,ESE,102,6.9,6.9,54,0.00,CLR,,0.00,846.0,WeatherDisplay:10.37,2013-03-06 00:21:00,
2013-03-05 14:26:00,75.7,57.4,30.03,ESE,103,11.5,11.5,53,0.00,CLR,,0.00,828.0,WeatherDisplay:10.37,2013-03-06 00:26:00,
2013-03-05 14:31:00,75.7,57.9,30.03,ENE,70,10.4,10.4,54,0.00,CLR,,0.00,814.0,WeatherDisplay:10.37,2013-03-06 00:31:00,
2013-03-05 14:36:00,75.4,57.1,30.02,NE,54,6.9,6.9,53,0.00,CLR,,0.00,807.0,WeatherDisplay:10.37,2013-03-06 00:36:00,
2013-03-05 14:41:00,75.3,57.5,30.02,East,81,11.5,11.5,54,0.00,CLR,,0.00,816.0,WeatherDisplay:10.37,2013-03-06 00:41:00,
2013-03-05 14:46:00,75.4,58.6,30.02,SE,135,8.1,8.1,56,0.00,CLR,,0.00,842.0,WeatherDisplay:10.37,2013-03-06 00:46:00,
2013-03-05 14:51:00,75.5,58.2,30.03,ENE,76,5.8,5.8,55,0.00,CLR,,0.00,786.0,WeatherDisplay:10.37,2013-03-06 00:51:00,
2013-03-05 14:56:00,75.6,57.3,30.02,NE,35,4.6,4.6,53,0.00,CLR,,0.00,814.0,WeatherDisplay:10.37,2013-03-06 00:56:00,
2013-03-05 15:01:00,75.7,58.9,30.02,SE,144,5.8,5.8,56,0.00,CLR,,0.00,895.0,WeatherDisplay:10.37,2013-03-06 01:01:00,
2013-03-05 15:06:00,76.0,58.7,30.03,ESE,111,6.9,6.9,55,0.00,CLR,,0.00,895.0,WeatherDisplay:10.37,2013-03-06 01:06:00,
2013-03-05 15:11:00,75.7,58.9,30.02,ENE,69,6.9,6.9,56,0.00,CLR,,0.00,737.0,WeatherDisplay:10.37,2013-03-06 01:11:00,
2013-03-05 15:16:00,75.6,58.3,30.02,SE,136,9.2,9.2,55,0.00,CLR,,0.00,742.0,WeatherDisplay:10.37,2013-03-06 01:16:00,
2013-03-05 15:21:00,75.6,58.3,30.02,NNW,344,4.6,4.6,55,0.00,CLR,,0.00,729.0,WeatherDisplay:10.37,2013-03-06 01:21:00,
2013-03-05 15:26:00,76.0,58.2,30.02,East,92,5.8,5.8,54,0.00,CLR,,0.00,693.0,WeatherDisplay:10.37,2013-03-06 01:26:00,
2013-03-05 15:31:00,75.8,58.5,30.02,NE,44,9.2,9.2,55,0.00,CLR,,0.00,708.0,WeatherDisplay:10.37,2013-03-06 01:31:00,
2013-03-05 15:36:00,75.6,57.8,30.03,ENE,58,6.9,6.9,54,0.00,CLR,,0.00,652.0,WeatherDisplay:10.37,2013-03-06 01:36:00,
2013-03-05 15:41:00,75.1,57.8,30.02,NNE,31,10.4,10.4,55,0.00,CLR,,0.00,635.0,WeatherDisplay:10.37,2013-03-06 01:41:00,
2013-03-05 15:46:00,75.1,57.8,30.02,NE,42,10.4,10.4,55,0.00,CLR,,0.00,613.0,WeatherDisplay:10.37,2013-03-06 01:46:00,
2013-03-05 15:51:00,75.1,57.8,30.02,NE,50,8.1,8.1,55,0.00,CLR,,0.00,598.0,WeatherDisplay:10.37,2013-03-06 01:51:00,
2013-03-05 15:56:00,75.3,57.5,30.02,ENE,61,9.2,9.2,54,0.00,CLR,,0.00,591.0,WeatherDisplay:10.37,2013-03-06 01:56:00,
2013-03-05 16:01:00,75.2,57.9,30.02,ENE,75,4.6,4.6,55,0.00,CLR,,0.00,571.0,WeatherDisplay:10.37,2013-03-06 02:01:00,
2013-03-05 16:06:00,75.3,58.5,30.02,SE,132,4.6,4.6,56,0.00,CLR,,0.00,559.0,WeatherDisplay:10.37,2013-03-06 02:06:00,
2013-03-05 16:11:00,75.2,57.9,30.02,East,96,10.4,10.4,55,0.00,CLR,,0.00,592.0,WeatherDisplay:10.37,2013-03-06 02:11:00,
2013-03-05 16:16:00,74.8,58.1,30.02,ENE,61,8.1,8.1,56,0.00,CLR,,0.00,461.0,WeatherDisplay:10.37,2013-03-06 02:16:00,
2013-03-05 16:21:00,74.4,57.7,30.02,East,92,8.1,8.1,56,0.00,BKN,,0.00,192.0,WeatherDisplay:10.37,2013-03-06 02:21:00,
2013-03-05 16:26:00,74.1,57.9,30.02,NE,45,10.4,10.4,57,0.00,CLR,,0.00,457.0,WeatherDisplay:10.37,2013-03-06 02:26:00,
2013-03-05 16:31:00,74.0,57.8,30.02,NNE,17,6.9,6.9,57,0.00,CLR,,0.00,510.0,WeatherDisplay:10.37,2013-03-06 02:31:00,
2013-03-05 16:36:00,73.8,57.6,30.02,NNE,12,5.8,5.8,57,0.00,CLR,,0.00,454.0,WeatherDisplay:10.37,2013-03-06 02:36:00,
2013-03-05 16:41:00,73.6,57.4,30.02,ENE,65,8.1,8.1,57,0.00,CLR,,0.00,431.0,WeatherDisplay:10.37,2013-03-06 02:41:00,
2013-03-05 16:46:00,73.4,57.7,30.02,ENE,69,8.1,8.1,58,0.00,CLR,,0.00,404.0,WeatherDisplay:10.37,2013-03-06 02:46:00,
2013-03-05 16:51:00,73.3,58.6,30.02,ENE,59,8.1,8.1,60,0.00,CLR,,0.00,415.0,WeatherDisplay:10.37,2013-03-06 02:51:00,
2013-03-05 16:56:00,73.2,58.5,30.03,NE,49,9.2,9.2,60,0.00,CLR,,0.00,443.0,WeatherDisplay:10.37,2013-03-06 02:56:00,
2013-03-05 17:01:00,72.8,58.1,30.03,ENE,71,6.9,6.9,60,0.00,CLR,,0.00,371.0,WeatherDisplay:10.37,2013-03-06 03:01:00,
2013-03-05 17:06:00,72.8,58.6,30.03,ENE,76,4.6,4.6,61,0.00,SCT,,0.00,135.0,WeatherDisplay:10.37,2013-03-06 03:06:00,
2013-03-05 17:11:00,72.4,58.6,30.03,ESE,112,6.9,6.9,62,0.00,BKN,,0.00,120.0,WeatherDisplay:10.37,2013-03-06 03:11:00,
2013-03-05 17:16:00,72.1,58.4,30.03,North,9,6.9,6.9,62,0.00,CLR,,0.00,323.0,WeatherDisplay:10.37,2013-03-06 03:16:00,
2013-03-05 17:21:00,72.0,58.3,30.03,ENE,70,4.6,4.6,62,0.00,CLR,,0.00,278.0,WeatherDisplay:10.37,2013-03-06 03:21:00,
2013-03-05 17:26:00,71.8,58.1,30.03,ENE,63,4.6,4.6,62,0.00,CLR,,0.00,234.0,WeatherDisplay:10.37,2013-03-06 03:26:00,
2013-03-05 17:31:00,71.7,58.0,30.03,NNE,33,5.8,5.8,62,0.00,BKN,,0.00,91.0,WeatherDisplay:10.37,2013-03-06 03:31:00,
2013-03-05 17:36:00,71.4,58.1,30.03,NE,51,4.6,4.6,63,0.00,BKN,,0.00,76.0,WeatherDisplay:10.37,2013-03-06 03:36:00,
2013-03-05 17:41:00,71.1,58.3,30.03,ENE,69,6.9,6.9,64,0.00,CLR,,0.00,192.0,WeatherDisplay:10.37,2013-03-06 03:41:00,
2013-03-05 17:46:00,71.1,58.7,30.04,NE,51,5.8,5.8,65,0.00,FEW,,0.00,90.0,WeatherDisplay:10.37,2013-03-06 03:46:00,
2013-03-05 17:51:00,70.8,58.9,30.04,NE,49,5.8,5.8,66,0.00,SCT,,0.00,67.0,WeatherDisplay:10.37,2013-03-06 03:51:00,
2013-03-05 17:56:00,70.5,59.0,30.04,NE,42,6.9,6.9,67,0.00,BKN,,0.00,53.0,WeatherDisplay:10.37,2013-03-06 03:56:00,
2013-03-05 18:01:00,70.1,58.6,30.04,ENE,63,3.5,3.5,67,0.00,BKN,,0.00,40.0,WeatherDisplay:10.37,2013-03-06 04:01:00,
2013-03-05 18:06:00,69.8,58.8,30.04,NNE,32,4.6,4.6,68,0.00,BKN,,0.00,33.0,WeatherDisplay:10.37,2013-03-06 04:06:00,
2013-03-05 18:11:00,69.5,58.9,30.05,NE,49,3.5,3.5,69,0.00,BKN,,0.00,28.0,WeatherDisplay:10.37,2013-03-06 04:11:00,
2013-03-05 18:16:00,69.1,58.9,30.05,ENE,63,4.6,4.6,70,0.00,BKN,,0.00,25.0,WeatherDisplay:10.37,2013-03-06 04:16:00,
2013-03-05 18:21:00,68.8,58.6,30.05,NE,40,6.9,6.9,70,0.00,SCT,,0.00,21.0,WeatherDisplay:10.37,2013-03-06 04:21:00,
2013-03-05 18:26:00,68.5,58.7,30.05,NE,34,4.6,4.6,71,0.00,SCT,,0.00,16.0,WeatherDisplay:10.37,2013-03-06 04:26:00,
2013-03-05 18:31:00,68.3,58.9,30.06,NE,51,3.5,3.5,72,0.00,CLR,,0.00,11.0,WeatherDisplay:10.37,2013-03-06 04:31:00,
2013-03-05 18:36:00,68.3,58.9,30.06,North,9,3.5,3.5,72,0.00,CLR,,0.00,7.0,WeatherDisplay:10.37,2013-03-06 04:36:00,
2013-03-05 18:41:00,68.1,59.1,30.06,ENE,78,4.6,4.6,73,0.00,,,0.00,5.0,WeatherDisplay:10.37,2013-03-06 04:41:00,
2013-03-05 18:46:00,67.9,58.9,30.06,East,81,8.1,8.1,73,0.00,,,0.00,0.0,WeatherDisplay:10.37,2013-03-06 04:46:00,
2013-03-05 18:51:00,67.7,58.7,30.06,North,11,8.1,8.1,73,0.00,,,0.00,0.0,WeatherDisplay:10.37,2013-03-06 04:51:00,
2013-03-05 18:56:00,67.5,58.9,30.06,NE,40,5.8,5.8,74,0.00,,,0.00,0.0,WeatherDisplay:10.37,2013-03-06 04:56:00,
2013-03-05 19:00:00,67.4,58.8,30.06,NNE,15,4.6,4.6,74,0.00,,,0.00,0.0,WeatherDisplay:10.37,2013-03-06 05:00:00,
2013-03-05 19:05:00,67.2,59.0,30.06,ENE,58,8.0,8.0,75,0.00,,,0.00,0.0,WeatherDisplay:10.37,2013-03-06 05:05:00,
2013-03-05 19:10:00,67.0,58.8,30.07,ENE,68,5.0,5.0,75,0.00,,,0.00,0.0,WeatherDisplay:10.37,2013-03-06 05:10:00,
2013-03-05 19:15:00,66.8,59.0,30.07,ENE,69,4.6,4.6,76,0.00,,,0.00,0.0,WeatherDisplay:10.37,2013-03-06 05:15:00,
2013-03-05 19:20:00,66.7,58.9,30.07,ENE,72,4.6,4.6,76,0.00,,,0.00,0.0,WeatherDisplay:10.37,2013-03-06 05:20:00,
2013-03-05 19:25:00,66.6,58.8,30.07,NNE,31,3.5,3.5,76,0.00,,,0.00,0.0,WeatherDisplay:10.37,2013-03-06 05:25:00,
2013-03-05 19:30:00,66.5,59.1,30.08,NE,53,5.0,5.0,77,0.00,,,0.00,0.0,WeatherDisplay:10.37,2013-03-06 05:30:00,
2013-03-05 19:35:00,66.4,59.0,30.08,ENE,75,4.6,4.6,77,0.00,,,0.00,0.0,WeatherDisplay:10.37,2013-03-06 05:35:00,
2013-03-05 19:40:00,66.3,58.9,30.08,NE,48,4.0,4.0,77,0.00,,,0.00,0.0,WeatherDisplay:10.37,2013-03-06 05:40:00,
2013-03-05 19:45:00,66.2,58.8,30.08,ENE,63,4.6,4.6,77,0.00,,,0.00,0.0,WeatherDisplay:10.37,2013-03-06 05:45:00,
2013-03-05 19:50:00,66.1,58.7,30.08,NE,51,3.5,3.5,77,0.00,,,0.00,0.0,WeatherDisplay:10.37,2013-03-06 05:50:00,
2013-03-05 19:55:00,66.0,58.9,30.08,NNE,30,6.9,6.9,78,0.00,,,0.00,0.0,WeatherDisplay:10.37,2013-03-06 05:55:00,
2013-03-05 20:00:00,66.0,58.9,30.08,ENE,57,8.1,8.1,78,0.00,,,0.00,0.0,WeatherDisplay:10.37,2013-03-06 06:00:00,
2013-03-05 20:05:00,66.0,58.9,30.08,ENE,69,5.8,5.8,78,0.00,,,0.00,0.0,WeatherDisplay:10.37,2013-03-06 06:05:00,
2013-03-05 20:10:00,66.0,59.3,30.08,ENE,73,6.9,6.9,79,0.00,,,0.00,0.0,WeatherDisplay:10.37,2013-03-06 06:10:00,
2013-03-05 20:15:00,65.9,59.2,30.08,NE,54,9.2,9.2,79,0.00,,,0.00,0.0,WeatherDisplay:10.37,2013-03-06 06:15:00,
2013-03-05 20:20:00,66.0,59.3,30.08,ENE,75,5.8,5.8,79,0.00,,,0.00,0.0,WeatherDisplay:10.37,2013-03-06 06:20:00,
2013-03-05 20:25:00,65.9,59.2,30.09,NE,46,3.5,3.5,79,0.00,,,0.00,0.0,WeatherDisplay:10.37,2013-03-06 06:25:00,
2013-03-05 20:30:00,65.9,59.2,30.08,ENE,64,5.0,5.0,79,0.00,,,0.00,0.0,WeatherDisplay:10.37,2013-03-06 06:30:00,
2013-03-05 20:35:00,65.9,59.2,30.09,NE,41,7.0,7.0,79,0.00,,,0.00,0.0,WeatherDisplay:10.37,2013-03-06 06:35:00,
2013-03-05 20:40:00,65.8,59.1,30.09,East,84,6.9,6.9,79,0.00,,,0.00,0.0,WeatherDisplay:10.37,2013-03-06 06:40:00,
2013-03-05 20:45:00,65.8,59.1,30.09,NE,42,5.0,5.0,79,0.00,,,0.00,0.0,WeatherDisplay:10.37,2013-03-06 06:45:00,
2013-03-05 20:50:00,65.7,59.0,30.08,NE,43,9.2,9.2,79,0.00,,,0.00,0.0,WeatherDisplay:10.37,2013-03-06 06:50:00,
2013-03-05 20:55:00,65.7,59.0,30.08,ENE,63,8.1,8.1,79,0.00,,,0.00,0.0,WeatherDisplay:10.37,2013-03-06 06:55:00,
2013-03-05 21:00:00,65.7,59.0,30.08,ENE,58,6.9,6.9,79,0.00,,,0.00,0.0,WeatherDisplay:10.37,2013-03-06 07:00:00,
2013-03-05 21:05:00,65.7,59.0,30.08,ENE,69,6.9,6.9,79,0.00,,,0.00,0.0,WeatherDisplay:10.37,2013-03-06 07:05:00,
2013-03-05 21:10:00,65.7,59.0,30.08,NNE,31,5.8,5.8,79,0.00,,,0.00,0.0,WeatherDisplay:10.37,2013-03-06 07:10:00,
2013-03-05 21:15:00,65.7,59.0,30.08,ENE,69,8.1,8.1,79,0.00,,,0.00,0.0,WeatherDisplay:10.37,2013-03-06 07:15:00,
2013-03-05 21:20:00,65.7,59.0,30.09,ENE,65,6.9,6.9,79,0.00,,,0.00,0.0,WeatherDisplay:10.37,2013-03-06 07:20:00,
2013-03-05 21:25:00,65.6,59.3,30.09,ENE,65,3.5,3.5,80,0.00,,,0.00,0.0,WeatherDisplay:10.37,2013-03-06 07:25:00,
2013-03-05 21:30:00,65.6,59.3,30.09,NNE,30,6.9,6.9,80,0.00,,,0.00,0.0,WeatherDisplay:10.37,2013-03-06 07:30:00,
2013-03-05 21:35:00,65.5,59.2,30.09,NNE,30,5.8,5.8,80,0.00,,,0.00,0.0,WeatherDisplay:10.37,2013-03-06 07:35:00,
2013-03-05 21:40:00,65.5,59.2,30.09,ENE,58,8.0,8.0,80,0.00,,,0.00,0.0,WeatherDisplay:10.37,2013-03-06 07:40:00,
2013-03-05 21:45:00,65.4,59.1,30.08,NNE,15,5.8,5.8,80,0.00,,,0.00,0.0,WeatherDisplay:10.37,2013-03-06 07:45:00,
2013-03-05 21:50:00,65.4,59.1,30.09,ENE,76,5.8,5.8,80,0.00,,,0.00,0.0,WeatherDisplay:10.37,2013-03-06 07:50:00,
2013-03-05 21:55:00,65.4,59.1,30.09,ENE,70,5.8,5.8,80,0.00,,,0.00,0.0,WeatherDisplay:10.37,2013-03-06 07:55:00,
2013-03-05 22:00:00,65.4,59.1,30.09,NNE,17,6.9,6.9,80,0.00,,,0.00,0.0,WeatherDisplay:10.37,2013-03-06 08:00:00,
2013-03-05 22:05:00,65.4,59.1,30.09,NE,35,6.9,6.9,80,0.00,,,0.00,0.0,WeatherDisplay:10.37,2013-03-06 08:05:00,
2013-03-05 22:10:00,65.4,59.1,30.09,NNE,13,5.8,5.8,80,0.00,,,0.00,0.0,WeatherDisplay:10.37,2013-03-06 08:10:00,
2013-03-05 22:15:00,65.4,59.1,30.09,NNE,28,6.0,6.0,80,0.00,,,0.00,0.0,WeatherDisplay:10.37,2013-03-06 08:15:00,
2013-03-05 22:20:00,65.4,59.1,30.09,NE,42,7.0,7.0,80,0.00,,,0.00,0.0,WeatherDisplay:10.37,2013-03-06 08:20:00,
2013-03-05 22:25:00,65.4,59.1,30.09,NNE,13,8.1,8.1,80,0.00,,,0.00,0.0,WeatherDisplay:10.37,2013-03-06 08:25:00,
2013-03-05 22:30:00,65.4,59.1,30.10,NNE,19,9.2,9.2,80,0.00,,,0.00,0.0,WeatherDisplay:10.37,2013-03-06 08:30:00,
2013-03-05 22:35:00,65.4,59.1,30.09,NE,49,5.8,5.8,80,0.00,,,0.00,0.0,WeatherDisplay:10.37,2013-03-06 08:35:00,
2013-03-05 22:40:00,65.4,59.1,30.10,North,355,4.6,4.6,80,0.00,,,0.00,0.0,WeatherDisplay:10.37,2013-03-06 08:40:00,
2013-03-05 22:45:00,65.4,59.1,30.10,North,5,6.9,6.9,80,0.00,,,0.00,0.0,WeatherDisplay:10.37,2013-03-06 08:45:00,
2013-03-05 22:50:00,65.4,59.1,30.10,NE,42,4.6,4.6,80,0.00,,,0.00,0.0,WeatherDisplay:10.37,2013-03-06 08:50:00,
2013-03-05 22:55:00,65.4,59.1,30.10,North,9,9.2,9.2,80,0.00,,,0.00,0.0,WeatherDisplay:10.37,2013-03-06 08:55:00,
2013-03-05 23:00:00,65.4,59.1,30.10,NE,45,5.0,5.0,80,0.00,,,0.00,0.0,WeatherDisplay:10.37,2013-03-06 09:00:00,
2013-03-05 23:05:00,65.4,59.1,30.10,NE,34,5.8,5.8,80,0.00,,,0.00,0.0,WeatherDisplay:10.37,2013-03-06 09:05:00,
2013-03-05 23:10:00,65.5,59.2,30.10,North,9,4.6,4.6,80,0.00,,,0.00,0.0,WeatherDisplay:10.37,2013-03-06 09:10:00,
2013-03-05 23:15:00,65.6,59.3,30.11,East,80,3.5,3.5,80,0.00,,,0.00,0.0,WeatherDisplay:10.37,2013-03-06 09:15:00,
2013-03-05 23:20:00,65.7,59.4,30.11,NNE,19,4.6,4.6,80,0.00,,,0.00,0.0,WeatherDisplay:10.37,2013-03-06 09:20:00,
2013-03-05 23:25:00,65.8,59.5,30.10,ENE,61,3.5,3.5,80,0.00,,,0.00,0.0,WeatherDisplay:10.37,2013-03-06 09:25:00,
2013-03-05 23:30:00,65.9,59.6,30.10,ENE,57,3.5,3.5,80,0.00,,,0.00,0.0,WeatherDisplay:10.37,2013-03-06 09:30:00,
2013-03-05 23:35:00,65.9,59.6,30.10,NE,35,8.1,8.1,80,0.00,,,0.00,0.0,WeatherDisplay:10.37,2013-03-06 09:35:00,
2013-03-05 23:40:00,65.9,59.6,30.10,ENE,58,4.0,4.0,80,0.00,,,0.00,0.0,WeatherDisplay:10.37,2013-03-06 09:40:00,
2013-03-05 23:45:00,65.8,59.8,30.09,NNE,19,4.6,4.6,81,0.00,,,0.00,0.0,WeatherDisplay:10.37,2013-03-06 09:45:00,
2013-03-05 23:50:00,65.7,59.7,30.09,ENE,78,6.9,6.9,81,0.00,,,0.00,0.0,WeatherDisplay:10.37,2013-03-06 09:50:00,
2013-03-05 23:55:00,65.7,59.7,30.09,ENE,61,5.8,5.8,81,0.00,,,0.00,0.0,WeatherDisplay:10.37,2013-03-06 09:55:00,